KSLK/SLK METAR and TAF weather

Enter ICAO airport designator
Station Type Date Time Source
KSLK METAR 2021/09/23 22:51 UTC NOAA

KSLK 232251Z AUTO 15008KT 10SM BKN110 21/17 A2990 RMK AO2 SLP116 T02060172


Station Type Date Time Source
KSLK Decoded METAR 2021/09/23 22:51 UTC NOAA

ADIRONDACK REGIONAL AIRPORT, NY, United States (KSLK) 44-24N 074-12W 498M
Sep 23, 2021 - 06:51 PM EDT / 2021.09.23 2251 UTC
Wind: from the SSE (150 degrees) at 9 MPH (8 KT):0
Visibility: 10 mile(s):0
Sky conditions: mostly cloudy
Temperature: 69.1 F (20.6 C)
Dew Point: 63.0 F (17.2 C)
Relative Humidity: 80%
Pressure (altimeter): 29.9 in. Hg (1012 hPa)
ob: KSLK 232251Z AUTO 15008KT 10SM BKN110 21/17 A2990 RMK AO2 SLP116 T02060172
cycle: 23

Station Type Date Time Source
KSLK TAF 2021/09/23 18:22 UTC NOAA

TAF KSLK 231720Z 2318/2418 16012G22KT P6SM VCSH BKN040
FM240200 14015G20KT 6SM -SHRA OVC028 WS020/16045KT
FM240400 19011KT 4SM -SHRA BR OVC012 WS020/16040KT
FM240700 21010KT 3SM -SHRA BR OVC005
FM241200 22006KT 5SM BR VCSH BKN014
FM241500 21009G15KT P6SM SCT100

Example: see airport list